Wind From: 20-09-2018 10:00 Until: 20:00 warning for: Wind Level: Yellow info button
suomi:
Tuulivaroitus maa-alueille: Lounaistuuli on voimakasta iltapäivällä ja illalla, tuulen nopeus puuskissa 15 m/s.

svenska:
Vindvarning för landområden: På eftermiddagen och kvällen är den sydvästliga vinden kraftigt, i vindbyarna 15 m/s.

english:
Wind warning for land areas: In the afternoon and in the evening, strong winds from southwest may bring strong gusts of 15 m/s. 


Thunder radar more information blitzortung!


Löydät sääaseman tiedot myös:

European Weather Network

Finland Weather Exchange

Weather Underground

AWEKAS



Weather Underground säähistoriasivu

Päivittäin yhteenveto Tammikuu 6, 2017 Yksiköt:  Englantilaiset    Metriset   Molemmat
« Edellinen Päivä
Seuraava Päivä »
Päivittäin Viikoittain Kuukausittain Vuosittain Mukautettu
  Korkea: Matala: Keskiarvo:
Lämpötila: TemperatureC °F -22.5 °F -15 °F
Kastepiste: DewpointC °F -24.4 °F -16.5 °F
Kosteus: Humidity % 84 % 88 %
Tuulen nopeus: WindSpeedKMH mph 0.0 mph 1.8 mph
Tuulenpuuska: WindSpeedGustKMH mph - -
Tuuli:- - SSW
Ilmanpaine: PressurehPa in 1018.2 in -
Sade: 0.0 in    
Historical Graphs
 
 
Taulukkotiedot Tammikuu 6, 2017
Aika Lämpötila Kastepiste Ilmanpaine Tuuli Tuulen nopeus Tuulenpuuska Kosteus Sademäärä (tunneittain)
TemperatureC °F DewpointC °F PressurehPa in Calm     Humidity % HourlyPrecipMM in
00:00 -21.9 °F -23.8 °F 1035.1 in Calm     85 % 0.0 in
00:15 -22.1 °F -24.0 °F 1035.1 in Calm     84 % 0.0 in
00:30 -22.2 °F -24.0 °F 1035.1 in Calm     85 % 0.0 in
00:45 -22.1 °F -23.9 °F 1035.1 in Calm     85 % 0.0 in
01:00 -22.2 °F -24.0 °F 1035.1 in Calm     85 % 0.0 in
01:15 -22.2 °F -24.1 °F 1035.4 in Calm     85 % 0.0 in
01:30 -22.3 °F -24.3 °F 1035.4 in Calm     84 % 0.0 in
01:45 -22.4 °F -24.4 °F 1035.1 in Calm     84 % 0.0 in
02:00 -22.5 °F -24.3 °F 1035.1 in Calm     85 % 0.0 in
02:15 -22.4 °F -24.2 °F 1035.1 in Calm     85 % 0.0 in
02:30 -22.3 °F -24.1 °F 1035.4 in Calm     85 % 0.0 in
02:45 -22.2 °F -24.0 °F 1035.1 in Calm     85 % 0.0 in
03:00 -22.2 °F -24.0 °F 1035.4 in Calm     85 % 0.0 in
03:15 -22.2 °F -24.1 °F 1035.4 in Calm     85 % 0.0 in
03:30 -22.2 °F -24.1 °F 1035.1 in Calm     85 % 0.0 in
03:45 -22.2 °F -24.1 °F 1035.1 in Calm     85 % 0.0 in
04:00 -22.3 °F -24.1 °F 1035.1 in Calm     85 % 0.0 in
04:15 -22.3 °F -24.2 °F 1035.1 in Calm     85 % 0.0 in
04:30 -22.3 °F -24.2 °F 1035.1 in Calm     85 % 0.0 in
04:45 -22.1 °F -23.8 °F 1035.1 in Calm     86 % 0.0 in
05:00 -21.8 °F -23.5 °F 1034.8 in Calm     86 % 0.0 in
05:15 -21.5 °F -23.2 °F 1034.8 in Calm     86 % 0.0 in
05:30 -21.3 °F -23.0 °F 1034.8 in Calm     86 % 0.0 in
05:45 -21.0 °F -22.6 °F 1034.8 in Calm   1.6 mph 87 % 0.0 in
06:00 -20.7 °F -22.3 °F 1034.8 in Calm     87 % 0.0 in
06:15 -20.4 °F -22.0 °F 1034.8 in Calm     87 % 0.0 in
06:30 -20.2 °F -21.8 °F 1034.4 in Calm     87 % 0.0 in
06:45 -20.2 °F -21.9 °F 1034.4 in Calm     86 % 0.0 in
07:00 -20.4 °F -22.3 °F 1034.4 in Calm     85 % 0.0 in
07:15 -20.8 °F -22.7 °F 1034.4 in Calm     85 % 0.0 in
07:30 -20.9 °F -22.8 °F 1034.4 in Calm     85 % 0.0 in
07:45 -21.2 °F -23.0 °F 1034.1 in Calm     85 % 0.0 in
08:00 -21.4 °F -23.2 °F 1034.1 in Calm     85 % 0.0 in
08:15 -21.5 °F -23.3 °F 1033.7 in Calm     85 % 0.0 in
08:30 -21.5 °F -23.3 °F 1033.7 in Calm     85 % 0.0 in
08:45 -21.5 °F -23.2 °F 1033.7 in Calm     86 % 0.0 in
09:00 -21.5 °F -23.3 °F 1033.7 in Calm     85 % 0.0 in
09:15 -21.6 °F -23.4 °F 1033.7 in Calm     85 % 0.0 in
09:30 -21.5 °F -23.2 °F 1033.7 in Calm     86 % 0.0 in
09:45 -21.3 °F -23.1 °F 1033.7 in Calm     86 % 0.0 in
10:00 -21.1 °F -22.8 °F 1033.7 in Calm     86 % 0.0 in
10:15 -20.6 °F -22.1 °F 1033.7 in Calm     88 % 0.0 in
10:30 -20.2 °F -21.6 °F 1033.4 in Calm     88 % 0.0 in
10:45 -19.4 °F -20.8 °F 1033.4 in Calm     89 % 0.0 in
11:00 -18.5 °F -19.7 °F 1033.1 in Calm   1.6 mph 90 % 0.0 in
11:15 -17.1 °F -18.0 °F 1033.1 in Calm   6.4 mph 92 % 0.0 in
11:30 -15.2 °F -16.1 °F 1032.7 in Calm   3.2 mph 93 % 0.0 in
11:45 -13.7 °F -14.7 °F 1032.7 in Calm   4.8 mph 92 % 0.0 in
12:00 -13.1 °F -14.1 °F 1032.4 in SW 1.6 mph 4.8 mph 92 % 0.0 in
12:15 -12.8 °F -14.0 °F 1032.4 in Calm   3.2 mph 91 % 0.0 in
12:30 -12.7 °F -13.9 °F 1032.1 in Calm   3.2 mph 91 % 0.0 in
12:45 -12.7 °F -14.0 °F 1031.7 in Calm   3.2 mph 90 % 0.0 in
13:00 -12.6 °F -13.8 °F 1031.4 in Calm   3.2 mph 91 % 0.0 in
13:15 -11.8 °F -12.9 °F 1031.4 in South 1.6 mph 6.4 mph 92 % 0.0 in
13:30 -11.5 °F -12.7 °F 1031.0 in SSE 1.6 mph 6.4 mph 91 % 0.0 in
13:45 -11.4 °F -12.6 °F 1030.7 in South 1.6 mph 9.7 mph 91 % 0.0 in
14:00 -11.3 °F -12.5 °F 1030.4 in SSW 1.6 mph 6.4 mph 91 % 0.0 in
14:15 -11.3 °F -12.5 °F 1030.0 in South 1.6 mph 6.4 mph 91 % 0.0 in
14:30 -11.3 °F -12.6 °F 1030.0 in South 1.6 mph 9.7 mph 90 % 0.0 in
14:45 -11.4 °F -12.7 °F 1029.7 in Calm   8.0 mph 90 % 0.0 in
15:00 -11.5 °F -12.8 °F 1029.7 in SSW 1.6 mph 6.4 mph 90 % 0.0 in
15:15 -11.5 °F -12.8 °F 1029.3 in Calm   6.4 mph 90 % 0.0 in
15:30 -11.2 °F -12.4 °F 1029.0 in South 3.2 mph 9.7 mph 91 % 0.0 in
15:45 -11.1 °F -12.4 °F 1028.7 in SSW 1.6 mph 8.0 mph 90 % 0.0 in
16:00 -11.1 °F -12.4 °F 1028.7 in South 1.6 mph 9.7 mph 90 % 0.0 in
16:15 -10.9 °F -12.3 °F 1028.3 in SSW 1.6 mph 9.7 mph 90 % 0.0 in
16:30 -10.6 °F -11.8 °F 1028.0 in SSW 3.2 mph 9.7 mph 91 % 0.0 in
16:45 -10.4 °F -11.6 °F 1027.7 in SSW 3.2 mph 9.7 mph 91 % 0.0 in
17:00 -10.3 °F -11.5 °F 1027.3 in SSW 3.2 mph 9.7 mph 91 % 0.0 in
17:15 -10.1 °F -11.3 °F 1027.3 in South 3.2 mph 6.4 mph 91 % 0.0 in
17:30 -9.6 °F -10.7 °F 1027.3 in SSW 3.2 mph 9.7 mph 92 % 0.0 in
17:45 -9.3 °F -10.5 °F 1027.0 in SSW 3.2 mph 11.3 mph 91 % 0.0 in
18:00 -9.0 °F -10.2 °F 1026.6 in SSW 3.2 mph 9.7 mph 91 % 0.0 in
18:15 -8.8 °F -10.0 °F 1026.3 in SSW 4.8 mph 11.3 mph 91 % 0.0 in
18:30 -8.8 °F -10.0 °F 1026.3 in SSW 3.2 mph 14.5 mph 91 % 0.0 in
18:45 -8.6 °F -9.8 °F 1026.0 in South 4.8 mph 11.3 mph 91 % 0.0 in
19:00 -8.3 °F -9.5 °F 1025.3 in SSW 4.8 mph 9.7 mph 91 % 0.0 in
19:15 -8.2 °F -9.4 °F 1024.9 in SSW 6.4 mph 14.5 mph 91 % 0.0 in
19:30 -8.1 °F -9.3 °F 1024.6 in South 3.2 mph 12.9 mph 91 % 0.0 in
19:45 -7.8 °F -9.0 °F 1024.3 in SSW 6.4 mph 19.3 mph 91 % 0.0 in
20:00 -7.6 °F -8.7 °F 1023.9 in SSW 4.8 mph 14.5 mph 92 % 0.0 in
20:15 -7.4 °F -8.5 °F 1023.9 in South 6.4 mph 16.1 mph 92 % 0.0 in
20:30 -7.3 °F -8.6 °F 1023.6 in South 6.4 mph 16.1 mph 91 % 0.0 in
20:45 -7.3 °F -8.4 °F 1023.2 in SSW 6.4 mph 14.5 mph 92 % 0.0 in
21:00 -7.2 °F -8.2 °F 1022.9 in South 6.4 mph 14.5 mph 92 % 0.0 in
21:15 -7.1 °F -8.2 °F 1021.9 in SSW 8.0 mph 16.1 mph 92 % 0.0 in
21:30 -7.0 °F -8.1 °F 1021.6 in South 6.4 mph 16.1 mph 92 % 0.0 in
21:45 -6.8 °F -7.9 °F 1021.2 in SSW 6.4 mph 17.7 mph 92 % 0.0 in
22:00 -6.7 °F -7.7 °F 1020.9 in South 6.4 mph 16.1 mph 92 % 0.0 in
22:15 -6.4 °F -7.5 °F 1020.5 in South 6.4 mph 16.1 mph 92 % 0.0 in
22:30 -6.1 °F -7.1 °F 1020.2 in South 4.8 mph 16.1 mph 92 % 0.0 in
22:45 -5.9 °F -7.0 °F 1019.9 in South 4.8 mph 14.5 mph 92 % 0.0 in
23:00 -5.8 °F -7.1 °F 1019.5 in South 6.4 mph 17.7 mph 91 % 0.0 in
23:15 -5.9 °F -7.0 °F 1019.2 in South 6.4 mph 17.7 mph 92 % 0.0 in
23:30 -5.8 °F -6.9 °F 1018.5 in SSW 6.4 mph 14.5 mph 92 % 0.0 in
23:45 -5.4 °F -6.4 °F 1018.2 in SSW 6.4 mph 19.3 mph 93 % 0.0 in
Esan sääasema
Terveisin Weather Underground - 2.75 mb

Alkuperäinen skripti  Jim McMurry - jmcmurry@mwt.net Sovitettu myös templatelle  Wim van der Kuil - Leuven-Template.eu

Laitteet joita käytämme:

Sääasema
Davis VP2

Sääasemaohjelma
Cumulus

Sääaseman tietokone
Asus EeePC

Palveluntarjoaja
Suncomet

Davis VP2

Cumulus

Asus EeePC

Suncomet